sensor_id;sensor_type;location;lat;lon;timestamp;pressure;altitude;pressure_sealevel;temperature;humidity
56518;BME280;42419;48.760;2.322;2022-10-16T00:00:36;100423.56;;;21.39;57.28
56518;BME280;42419;48.760;2.322;2022-10-16T00:03:04;100440.50;;;21.39;57.69
56518;BME280;42419;48.760;2.322;2022-10-16T00:05:30;100433.38;;;21.38;57.41
56518;BME280;42419;48.760;2.322;2022-10-16T00:07:56;100438.84;;;21.37;57.49
56518;BME280;42419;48.760;2.322;2022-10-16T00:10:21;100428.91;;;21.39;57.21
56518;BME280;42419;48.760;2.322;2022-10-16T00:12:47;100414.75;;;21.37;57.34
56518;BME280;42419;48.760;2.322;2022-10-16T00:15:12;100427.16;;;21.38;57.28
56518;BME280;42419;48.760;2.322;2022-10-16T00:17:38;100452.25;;;21.37;57.25
56518;BME280;42419;48.760;2.322;2022-10-16T00:20:04;100435.53;;;21.32;57.30
56518;BME280;42419;48.760;2.322;2022-10-16T00:22:29;100442.53;;;21.34;56.96
56518;BME280;42419;48.760;2.322;2022-10-16T00:24:55;100448.75;;;21.35;57.06
56518;BME280;42419;48.760;2.322;2022-10-16T00:27:20;100456.78;;;21.35;57.07
56518;BME280;42419;48.760;2.322;2022-10-16T00:29:49;100448.75;;;21.35;56.97
56518;BME280;42419;48.760;2.322;2022-10-16T00:32:15;100441.66;;;21.34;56.96
56518;BME280;42419;48.760;2.322;2022-10-16T00:34:41;100441.66;;;21.34;56.83
56518;BME280;42419;48.760;2.322;2022-10-16T00:37:06;100434.88;;;21.27;56.69
56518;BME280;42419;48.760;2.322;2022-10-16T00:39:31;100458.69;;;21.33;56.51
56518;BME280;42419;48.760;2.322;2022-10-16T00:41:56;100462.19;;;21.33;56.67
56518;BME280;42419;48.760;2.322;2022-10-16T00:45:00;100451.50;;;21.33;56.55
56518;BME280;42419;48.760;2.322;2022-10-16T00:47:29;100454.78;;;21.21;56.58
56518;BME280;42419;48.760;2.322;2022-10-16T00:50:04;100468.59;;;21.31;56.59
56518;BME280;42419;48.760;2.322;2022-10-16T00:52:31;100472.22;;;21.30;56.47
56518;BME280;42419;48.760;2.322;2022-10-16T00:54:58;100465.03;;;21.30;56.38
56518;BME280;42419;48.760;2.322;2022-10-16T00:57:23;100454.34;;;21.30;56.50
56518;BME280;42419;48.760;2.322;2022-10-16T00:59:50;100456.13;;;21.30;56.28
56518;BME280;42419;48.760;2.322;2022-10-16T01:02:16;100440.16;;;21.28;56.20
56518;BME280;42419;48.760;2.322;2022-10-16T01:04:45;100451.72;;;21.29;56.19
56518;BME280;42419;48.760;2.322;2022-10-16T01:10:14;100465.97;;;21.29;55.85
56518;BME280;42419;48.760;2.322;2022-10-16T01:12:45;100465.09;;;21.29;55.85
56518;BME280;42419;48.760;2.322;2022-10-16T01:15:27;100470.47;;;21.29;56.09
56518;BME280;42419;48.760;2.322;2022-10-16T01:20:51;100467.00;;;21.27;55.88
56518;BME280;42419;48.760;2.322;2022-10-16T01:28:47;100474.25;;;21.25;55.95
56518;BME280;42419;48.760;2.322;2022-10-16T01:31:18;100463.53;;;21.25;55.81
56518;BME280;42419;48.760;2.322;2022-10-16T01:33:47;100473.31;;;21.26;55.85
56518;BME280;42419;48.760;2.322;2022-10-16T01:36:19;100476.03;;;21.24;55.67
56518;BME280;42419;48.760;2.322;2022-10-16T01:38:49;100475.22;;;21.24;55.88
56518;BME280;42419;48.760;2.322;2022-10-16T01:41:38;100465.28;;;21.26;55.42
56518;BME280;42419;48.760;2.322;2022-10-16T01:44:08;100468.09;;;21.23;55.60
56518;BME280;42419;48.760;2.322;2022-10-16T01:46:37;100473.38;;;21.24;55.69
56518;BME280;42419;48.760;2.322;2022-10-16T01:49:05;100472.53;;;21.24;55.26
56518;BME280;42419;48.760;2.322;2022-10-16T01:51:32;100487.72;;;21.23;55.46
56518;BME280;42419;48.760;2.322;2022-10-16T01:54:00;100478.72;;;21.24;55.42
56518;BME280;42419;48.760;2.322;2022-10-16T01:56:27;100476.25;;;21.20;55.56
56518;BME280;42419;48.760;2.322;2022-10-16T01:59:33;100477.88;;;21.24;55.44
56518;BME280;42419;48.760;2.322;2022-10-16T02:01:59;100473.59;;;21.20;55.15
56518;BME280;42419;48.760;2.322;2022-10-16T02:04:30;100471.78;;;21.20;55.39
56518;BME280;42419;48.760;2.322;2022-10-16T02:06:56;100461.06;;;21.20;55.50
56518;BME280;42419;48.760;2.322;2022-10-16T02:09:22;100471.66;;;21.23;55.42
56518;BME280;42419;48.760;2.322;2022-10-16T02:11:47;100485.91;;;21.24;55.37
56518;BME280;42419;48.760;2.322;2022-10-16T02:14:14;100469.31;;;21.16;55.01
56518;BME280;42419;48.760;2.322;2022-10-16T02:16:42;100427.66;;;20.91;55.02
56518;BME280;42419;48.760;2.322;2022-10-16T02:19:08;100479.75;;;21.22;55.25
56518;BME280;42419;48.760;2.322;2022-10-16T02:21:48;100477.00;;;21.23;54.76
56518;BME280;42419;48.760;2.322;2022-10-16T02:27:06;100475.25;;;21.22;55.30
56518;BME280;42419;48.760;2.322;2022-10-16T02:29:44;100484.22;;;21.21;54.84
56518;BME280;42419;48.760;2.322;2022-10-16T02:32:15;100479.13;;;21.15;55.19
56518;BME280;42419;48.760;2.322;2022-10-16T02:34:42;100486.91;;;21.21;55.13
56518;BME280;42419;48.760;2.322;2022-10-16T02:37:08;100486.19;;;21.18;54.67
56518;BME280;42419;48.760;2.322;2022-10-16T02:39:36;100498.50;;;21.22;54.90
56518;BME280;42419;48.760;2.322;2022-10-16T02:42:02;100495.81;;;21.22;55.02
56518;BME280;42419;48.760;2.322;2022-10-16T02:44:28;100491.41;;;21.21;55.09
56518;BME280;42419;48.760;2.322;2022-10-16T02:46:53;100495.88;;;21.20;54.90
56518;BME280;42419;48.760;2.322;2022-10-16T02:49:18;100502.09;;;21.21;54.75
56518;BME280;42419;48.760;2.322;2022-10-16T02:51:44;100506.53;;;21.22;54.80
56518;BME280;42419;48.760;2.322;2022-10-16T02:54:09;100498.50;;;21.22;54.62
56518;BME280;42419;48.760;2.322;2022-10-16T02:56:34;100494.00;;;21.22;54.58
56518;BME280;42419;48.760;2.322;2022-10-16T02:59:00;100506.59;;;21.20;54.47
56518;BME280;42419;48.760;2.322;2022-10-16T03:01:25;100516.31;;;21.23;54.69
56518;BME280;42419;48.760;2.322;2022-10-16T03:03:50;100506.53;;;21.22;54.51
56518;BME280;42419;48.760;2.322;2022-10-16T03:06:16;100506.53;;;21.22;54.65
56518;BME280;42419;48.760;2.322;2022-10-16T03:08:41;100510.22;;;21.19;54.72
56518;BME280;42419;48.760;2.322;2022-10-16T03:11:06;100519.09;;;21.20;54.83
56518;BME280;42419;48.760;2.322;2022-10-16T03:13:32;100513.75;;;21.20;54.67
56518;BME280;42419;48.760;2.322;2022-10-16T03:15:57;100512.81;;;21.21;54.47
56518;BME280;42419;48.760;2.322;2022-10-16T03:18:22;100514.63;;;21.20;54.21
56518;BME280;42419;48.760;2.322;2022-10-16T03:20:47;100501.44;;;21.16;54.60
56518;BME280;42419;48.760;2.322;2022-10-16T03:23:13;100512.28;;;21.13;54.49
56518;BME280;42419;48.760;2.322;2022-10-16T03:25:39;100521.72;;;21.21;54.09
56518;BME280;42419;48.760;2.322;2022-10-16T03:28:04;100510.13;;;21.21;54.31
56518;BME280;42419;48.760;2.322;2022-10-16T03:30:30;100497.09;;;21.13;54.15
56518;BME280;42419;48.760;2.322;2022-10-16T03:32:55;100502.09;;;21.21;54.40
56518;BME280;42419;48.760;2.322;2022-10-16T03:35:21;100480.78;;;21.19;54.25
56518;BME280;42419;48.760;2.322;2022-10-16T03:37:47;100490.53;;;21.20;54.23
56518;BME280;42419;48.760;2.322;2022-10-16T03:40:12;100485.25;;;21.19;54.29
56518;BME280;42419;48.760;2.322;2022-10-16T03:42:38;100487.13;;;21.17;54.29
56518;BME280;42419;48.760;2.322;2022-10-16T03:45:03;100490.63;;;21.19;54.25
56518;BME280;42419;48.760;2.322;2022-10-16T03:47:29;100482.66;;;21.17;54.19
56518;BME280;42419;48.760;2.322;2022-10-16T03:49:54;100502.25;;;21.18;53.93
56518;BME280;42419;48.760;2.322;2022-10-16T03:52:19;100475.25;;;21.03;54.23
56518;BME280;42419;48.760;2.322;2022-10-16T03:54:45;100495.09;;;21.18;54.06
56518;BME280;42419;48.760;2.322;2022-10-16T03:57:10;100497.69;;;21.20;54.14
56518;BME280;42419;48.760;2.322;2022-10-16T03:59:35;100482.84;;;21.13;54.13
56518;BME280;42419;48.760;2.322;2022-10-16T04:02:01;100484.44;;;21.17;53.83
56518;BME280;42419;48.760;2.322;2022-10-16T04:04:26;100490.69;;;21.17;54.21
56518;BME280;42419;48.760;2.322;2022-10-16T04:06:51;100496.91;;;21.18;54.04
56518;BME280;42419;48.760;2.322;2022-10-16T04:09:17;100486.53;;;21.10;53.94
56518;BME280;42419;48.760;2.322;2022-10-16T04:11:42;100475.97;;;21.07;54.11
56518;BME280;42419;48.760;2.322;2022-10-16T04:14:08;100493.34;;;21.17;53.95
56518;BME280;42419;48.760;2.322;2022-10-16T04:16:33;100504.94;;;21.18;54.13
56518;BME280;42419;48.760;2.322;2022-10-16T04:18:58;100504.06;;;21.17;54.07
56518;BME280;42419;48.760;2.322;2022-10-16T04:21:24;100512.09;;;21.17;53.77
56518;BME280;42419;48.760;2.322;2022-10-16T04:23:49;100520.13;;;21.17;54.04
56518;BME280;42419;48.760;2.322;2022-10-16T04:26:15;100521.00;;;21.18;53.91
56518;BME280;42419;48.760;2.322;2022-10-16T04:28:40;100516.72;;;21.14;53.90
56518;BME280;42419;48.760;2.322;2022-10-16T04:31:06;100536.13;;;21.19;53.75
56518;BME280;42419;48.760;2.322;2022-10-16T04:33:32;100506.22;;;21.09;53.75
56518;BME280;42419;48.760;2.322;2022-10-16T04:35:58;100518.25;;;21.19;53.76
56518;BME280;42419;48.760;2.322;2022-10-16T04:38:24;100517.78;;;21.09;53.41
56518;BME280;42419;48.760;2.322;2022-10-16T04:40:52;100537.84;;;21.20;53.58
56518;BME280;42419;48.760;2.322;2022-10-16T04:43:18;100530.78;;;21.19;53.77
56518;BME280;42419;48.760;2.322;2022-10-16T04:45:43;100499.72;;;20.96;53.78
56518;BME280;42419;48.760;2.322;2022-10-16T04:48:09;100541.56;;;21.17;52.96
56518;BME280;42419;48.760;2.322;2022-10-16T04:50:34;100549.53;;;21.19;53.70
56518;BME280;42419;48.760;2.322;2022-10-16T04:52:59;100553.19;;;21.16;53.79
56518;BME280;42419;48.760;2.322;2022-10-16T04:55:25;100557.63;;;21.17;53.39
56518;BME280;42419;48.760;2.322;2022-10-16T04:57:50;100543.75;;;21.07;53.49
56518;BME280;42419;48.760;2.322;2022-10-16T05:00:16;100572.81;;;21.17;53.59
56518;BME280;42419;48.760;2.322;2022-10-16T05:02:41;100584.38;;;21.17;53.64
56518;BME280;42419;48.760;2.322;2022-10-16T05:05:07;100583.50;;;21.17;53.54
56518;BME280;42419;48.760;2.322;2022-10-16T05:07:32;100590.63;;;21.18;53.48
56518;BME280;42419;48.760;2.322;2022-10-16T05:09:57;100587.94;;;21.18;53.58
56518;BME280;42419;48.760;2.322;2022-10-16T05:12:23;100563.38;;;21.08;53.46
56518;BME280;42419;48.760;2.322;2022-10-16T05:14:48;100581.84;;;21.14;53.41
56518;BME280;42419;48.760;2.322;2022-10-16T05:17:13;100585.38;;;21.15;53.60
56518;BME280;42419;48.760;2.322;2022-10-16T05:19:38;100596.91;;;21.17;53.46
56518;BME280;42419;48.760;2.322;2022-10-16T05:22:04;100604.94;;;21.17;53.56
56518;BME280;42419;48.760;2.322;2022-10-16T05:24:29;100612.03;;;21.18;53.51
56518;BME280;42419;48.760;2.322;2022-10-16T05:26:55;100607.63;;;21.17;53.44
56518;BME280;42419;48.760;2.322;2022-10-16T05:29:20;100608.53;;;21.16;53.23
56518;BME280;42419;48.760;2.322;2022-10-16T05:31:45;100620.06;;;21.18;53.41
56518;BME280;42419;48.760;2.322;2022-10-16T05:34:11;100621.00;;;21.17;53.61
56518;BME280;42419;48.760;2.322;2022-10-16T05:36:36;100611.16;;;21.17;53.21
56518;BME280;42419;48.760;2.322;2022-10-16T05:39:02;100606.13;;;21.09;53.28
56518;BME280;42419;48.760;2.322;2022-10-16T05:41:27;100601.38;;;21.16;53.20
56518;BME280;42419;48.760;2.322;2022-10-16T05:43:53;100598.66;;;21.18;53.12
56518;BME280;42419;48.760;2.322;2022-10-16T05:46:18;100611.16;;;21.17;53.44
56518;BME280;42419;48.760;2.322;2022-10-16T05:48:44;100617.38;;;21.18;53.38
56518;BME280;42419;48.760;2.322;2022-10-16T05:51:11;100614.72;;;21.18;53.41
56518;BME280;42419;48.760;2.322;2022-10-16T05:53:38;100611.16;;;21.17;53.20
56518;BME280;42419;48.760;2.322;2022-10-16T05:56:05;100612.03;;;21.18;53.19
56518;BME280;42419;48.760;2.322;2022-10-16T05:58:32;100612.03;;;21.18;53.04
56518;BME280;42419;48.760;2.322;2022-10-16T06:01:05;100618.25;;;21.18;53.09
56518;BME280;42419;48.760;2.322;2022-10-16T06:03:30;100596.38;;;21.08;53.15
56518;BME280;42419;48.760;2.322;2022-10-16T06:05:56;100617.44;;;21.16;53.21
56518;BME280;42419;48.760;2.322;2022-10-16T06:08:22;100621.88;;;21.17;53.11
56518;BME280;42419;48.760;2.322;2022-10-16T06:10:48;100624.56;;;21.17;53.22
56518;BME280;42419;48.760;2.322;2022-10-16T06:13:14;100613.84;;;21.17;52.94
56518;BME280;42419;48.760;2.322;2022-10-16T06:15:41;100607.56;;;21.18;52.97
56518;BME280;42419;48.760;2.322;2022-10-16T06:18:08;100603.06;;;21.19;53.02
56518;BME280;42419;48.760;2.322;2022-10-16T06:20:34;100607.56;;;21.18;53.23
56518;BME280;42419;48.760;2.322;2022-10-16T06:23:00;100602.19;;;21.18;53.09
56518;BME280;42419;48.760;2.322;2022-10-16T06:25:25;100604.00;;;21.18;52.81
56518;BME280;42419;48.760;2.322;2022-10-16T06:27:50;100599.56;;;21.17;52.74
56518;BME280;42419;48.760;2.322;2022-10-16T06:30:16;100600.44;;;21.17;52.88
56518;BME280;42419;48.760;2.322;2022-10-16T06:32:41;100602.25;;;21.17;53.15
56518;BME280;42419;48.760;2.322;2022-10-16T06:35:06;100598.09;;;21.09;52.98
56518;BME280;42419;48.760;2.322;2022-10-16T06:37:32;100611.16;;;21.17;53.20
56518;BME280;42419;48.760;2.322;2022-10-16T06:39:57;100616.50;;;21.17;53.03
56518;BME280;42419;48.760;2.322;2022-10-16T06:42:22;100605.94;;;21.14;52.80
56518;BME280;42419;48.760;2.322;2022-10-16T06:44:48;100621.00;;;21.17;52.83
56518;BME280;42419;48.760;2.322;2022-10-16T06:47:13;100626.34;;;21.17;53.21
56518;BME280;42419;48.760;2.322;2022-10-16T06:49:38;100628.97;;;21.18;53.00
56518;BME280;42419;48.760;2.322;2022-10-16T06:52:04;100644.94;;;21.20;52.74
56518;BME280;42419;48.760;2.322;2022-10-16T06:54:29;100632.69;;;21.14;52.94
56518;BME280;42419;48.760;2.322;2022-10-16T06:56:55;100637.06;;;21.17;53.13
56518;BME280;42419;48.760;2.322;2022-10-16T06:59:21;100636.25;;;21.15;52.94
56518;BME280;42419;48.760;2.322;2022-10-16T07:01:46;100657.41;;;21.21;52.94
56518;BME280;42419;48.760;2.322;2022-10-16T07:04:12;100656.47;;;21.22;52.83
56518;BME280;42419;48.760;2.322;2022-10-16T07:06:37;100652.00;;;21.22;52.96
56518;BME280;42419;48.760;2.322;2022-10-16T07:09:06;100660.91;;;21.23;52.83
56518;BME280;42419;48.760;2.322;2022-10-16T07:11:32;100614.78;;;20.96;52.80
56518;BME280;42419;48.760;2.322;2022-10-16T07:13:58;100660.81;;;21.24;52.76
56518;BME280;42419;48.760;2.322;2022-10-16T07:16:25;100665.16;;;21.27;52.65
56518;BME280;42419;48.760;2.322;2022-10-16T07:18:53;100669.59;;;21.28;52.73
56518;BME280;42419;48.760;2.322;2022-10-16T07:21:23;100673.13;;;21.28;52.66
56518;BME280;42419;48.760;2.322;2022-10-16T07:23:51;100675.81;;;21.28;52.66
56518;BME280;42419;48.760;2.322;2022-10-16T07:26:17;100671.44;;;21.26;52.40
56518;BME280;42419;48.760;2.322;2022-10-16T07:28:42;100673.50;;;21.39;52.45
56518;BME280;42419;48.760;2.322;2022-10-16T07:31:11;100684.44;;;21.53;52.22
56518;BME280;42419;48.760;2.322;2022-10-16T07:33:38;100691.13;;;21.64;52.06
56518;BME280;42419;48.760;2.322;2022-10-16T07:36:04;100697.06;;;21.70;51.70
56518;BME280;42419;48.760;2.322;2022-10-16T07:38:29;100693.16;;;21.77;51.66
56518;BME280;42419;48.760;2.322;2022-10-16T07:41:07;100689.69;;;21.75;51.65
56518;BME280;42419;48.760;2.322;2022-10-16T07:43:34;100701.22;;;21.77;51.60
56518;BME280;42419;48.760;2.322;2022-10-16T07:45:59;100702.69;;;21.83;51.69
56518;BME280;42419;48.760;2.322;2022-10-16T07:48:30;100710.44;;;21.90;51.35
56518;BME280;42419;48.760;2.322;2022-10-16T07:51:00;100707.75;;;21.90;51.14
56518;BME280;42419;48.760;2.322;2022-10-16T07:53:25;100706.13;;;21.86;51.49
56518;BME280;42419;48.760;2.322;2022-10-16T07:55:51;100683.00;;;21.84;51.61
56518;BME280;42419;48.760;2.322;2022-10-16T07:58:16;100702.25;;;21.93;51.53
56518;BME280;42419;48.760;2.322;2022-10-16T08:00:41;100713.91;;;21.92;51.67
56518;BME280;42419;48.760;2.322;2022-10-16T08:03:08;100717.44;;;21.93;51.34
56518;BME280;42419;48.760;2.322;2022-10-16T08:05:33;100736.22;;;21.93;51.54
56518;BME280;42419;48.760;2.322;2022-10-16T08:08:00;100730.38;;;21.83;51.78
56518;BME280;42419;48.760;2.322;2022-10-16T08:10:27;100733.22;;;21.80;51.62
56518;BME280;42419;48.760;2.322;2022-10-16T08:12:52;100741.31;;;21.79;51.92
56518;BME280;42419;48.760;2.322;2022-10-16T08:15:21;100737.25;;;21.70;51.99
56518;BME280;42419;48.760;2.322;2022-10-16T08:18:16;100736.16;;;21.74;52.24
56518;BME280;42419;48.760;2.322;2022-10-16T08:20:42;100698.22;;;21.46;52.07
56518;BME280;42419;48.760;2.322;2022-10-16T08:23:09;100734.56;;;21.70;52.19
56518;BME280;42419;48.760;2.322;2022-10-16T08:25:36;100738.06;;;21.72;52.25
56518;BME280;42419;48.760;2.322;2022-10-16T08:28:03;100756.72;;;21.74;52.16
56518;BME280;42419;48.760;2.322;2022-10-16T08:30:29;100756.81;;;21.72;52.09
56518;BME280;42419;48.760;2.322;2022-10-16T08:32:55;100753.53;;;21.66;52.17
56518;BME280;42419;48.760;2.322;2022-10-16T08:35:20;100769.47;;;21.69;52.27
56518;BME280;42419;48.760;2.322;2022-10-16T08:37:46;100772.25;;;21.67;52.16
56518;BME280;42419;48.760;2.322;2022-10-16T08:40:20;100753.53;;;21.66;51.87
56518;BME280;42419;48.760;2.322;2022-10-16T08:49:08;100756.06;;;21.69;51.97
56518;BME280;42419;48.760;2.322;2022-10-16T08:51:36;100761.53;;;21.67;51.98
56518;BME280;42419;48.760;2.322;2022-10-16T08:54:06;100719.69;;;21.44;52.09
56518;BME280;42419;48.760;2.322;2022-10-16T08:56:36;100753.28;;;21.72;51.86
56518;BME280;42419;48.760;2.322;2022-10-16T08:59:01;100755.59;;;21.79;52.15
56518;BME280;42419;48.760;2.322;2022-10-16T09:01:38;100764.28;;;21.84;51.91
56518;BME280;42419;48.760;2.322;2022-10-16T09:07:18;100768.72;;;22.23;50.04
56518;BME280;42419;48.760;2.322;2022-10-16T09:09:58;100788.09;;;22.29;49.47
56518;BME280;42419;48.760;2.322;2022-10-16T09:15:24;100777.25;;;22.50;48.35
56518;BME280;42419;48.760;2.322;2022-10-16T09:20:51;100765.81;;;23.16;47.46
56518;BME280;42419;48.760;2.322;2022-10-16T09:23:28;100770.69;;;23.27;47.55
56518;BME280;42419;48.760;2.322;2022-10-16T09:25:55;100779.53;;;23.46;46.50
56518;BME280;42419;48.760;2.322;2022-10-16T09:28:21;100768.19;;;23.57;46.42
56518;BME280;42419;48.760;2.322;2022-10-16T09:30:47;100757.69;;;23.52;46.75
56518;BME280;42419;48.760;2.322;2022-10-16T09:33:18;100769.41;;;23.34;46.35
56518;BME280;42419;48.760;2.322;2022-10-16T09:35:47;100759.22;;;23.41;45.92
56518;BME280;42419;48.760;2.322;2022-10-16T09:38:40;100775.72;;;23.50;45.35
56518;BME280;42419;48.760;2.322;2022-10-16T09:41:16;100773.03;;;23.50;45.34
56518;BME280;42419;48.760;2.322;2022-10-16T09:44:03;100782.03;;;23.49;45.06
56518;BME280;42419;48.760;2.322;2022-10-16T09:46:34;100779.06;;;23.38;45.42
56518;BME280;42419;48.760;2.322;2022-10-16T09:49:16;100782.00;;;23.34;45.94
56518;BME280;42419;48.760;2.322;2022-10-16T09:51:44;100781.03;;;23.35;46.16
56518;BME280;42419;48.760;2.322;2022-10-16T09:54:13;100771.78;;;23.40;46.18
56518;BME280;42419;48.760;2.322;2022-10-16T09:56:39;100755.38;;;23.29;46.36
56518;BME280;42419;48.760;2.322;2022-10-16T09:59:14;100765.63;;;23.38;45.85
56518;BME280;42419;48.760;2.322;2022-10-16T10:01:48;100764.59;;;23.41;46.23
56518;BME280;42419;48.760;2.322;2022-10-16T10:04:16;100755.41;;;23.45;45.96
56518;BME280;42419;48.760;2.322;2022-10-16T10:06:45;100747.16;;;23.48;45.56
56518;BME280;42419;48.760;2.322;2022-10-16T10:09:25;100743.09;;;23.41;45.78
56518;BME280;42419;48.760;2.322;2022-10-16T10:11:59;100725.88;;;23.27;45.97
56518;BME280;42419;48.760;2.322;2022-10-16T10:14:28;100738.19;;;23.32;45.66
56518;BME280;42419;48.760;2.322;2022-10-16T10:17:26;100737.72;;;23.41;45.60
56518;BME280;42419;48.760;2.322;2022-10-16T10:19:53;100742.53;;;23.51;45.78
56518;BME280;42419;48.760;2.322;2022-10-16T10:38:53;100754.72;;;22.54;47.29
56518;BME280;42419;48.760;2.322;2022-10-16T10:46:44;100756.63;;;22.33;48.40
56518;BME280;42419;48.760;2.322;2022-10-16T10:52:28;100747.38;;;22.21;49.51
56518;BME280;42419;48.760;2.322;2022-10-16T11:02:55;100721.28;;;22.06;54.47
56518;BME280;42419;48.760;2.322;2022-10-16T11:05:49;100730.53;;;22.18;54.84
56518;BME280;42419;48.760;2.322;2022-10-16T11:08:21;100726.13;;;22.17;54.67
56518;BME280;42419;48.760;2.322;2022-10-16T11:13:26;100723.00;;;22.26;55.04
56518;BME280;42419;48.760;2.322;2022-10-16T11:15:57;100715.75;;;22.28;54.33
56518;BME280;42419;48.760;2.322;2022-10-16T11:21:27;100714.75;;;22.30;55.60
56518;BME280;42419;48.760;2.322;2022-10-16T11:24:16;100663.16;;;22.07;55.89
56518;BME280;42419;48.760;2.322;2022-10-16T11:26:45;100711.81;;;22.35;55.31
56518;BME280;42419;48.760;2.322;2022-10-16T11:29:27;100714.34;;;22.38;55.01
56518;BME280;42419;48.760;2.322;2022-10-16T11:31:57;100711.50;;;22.41;54.67
56518;BME280;42419;48.760;2.322;2022-10-16T11:34:29;100713.25;;;22.42;54.42
56518;BME280;42419;48.760;2.322;2022-10-16T11:36:58;100712.38;;;22.41;53.99
56518;BME280;42419;48.760;2.322;2022-10-16T11:39:28;100699.19;;;22.37;54.17
56518;BME280;42419;48.760;2.322;2022-10-16T11:44:42;100691.06;;;22.38;54.17
56518;BME280;42419;48.760;2.322;2022-10-16T11:47:35;100696.84;;;22.48;53.67
56518;BME280;42419;48.760;2.322;2022-10-16T11:55:41;100678.38;;;22.42;53.69
56518;BME280;42419;48.760;2.322;2022-10-16T11:58:14;100684.53;;;22.44;53.45
56518;BME280;42419;48.760;2.322;2022-10-16T12:00:46;100663.44;;;22.36;53.59
56518;BME280;42419;48.760;2.322;2022-10-16T12:03:17;100673.66;;;22.47;53.40
56518;BME280;42419;48.760;2.322;2022-10-16T12:06:02;100677.28;;;22.46;53.34
56518;BME280;42419;48.760;2.322;2022-10-16T12:08:34;100657.72;;;22.44;53.17
56518;BME280;42419;48.760;2.322;2022-10-16T12:13:51;100595.31;;;22.05;53.01
56518;BME280;42419;48.760;2.322;2022-10-16T12:18:45;100656.84;;;22.44;53.31
56518;BME280;42419;48.760;2.322;2022-10-16T12:21:13;100650.03;;;22.36;53.36
56518;BME280;42419;48.760;2.322;2022-10-16T12:23:50;100664.91;;;22.44;53.19
56518;BME280;42419;48.760;2.322;2022-10-16T12:26:26;100640.34;;;22.34;53.27
56518;BME280;42419;48.760;2.322;2022-10-16T12:28:52;100653.41;;;22.40;53.48
56518;BME280;42419;48.760;2.322;2022-10-16T12:31:18;100650.75;;;22.40;53.09
56518;BME280;42419;48.760;2.322;2022-10-16T12:33:58;100643.19;;;22.31;53.59
56518;BME280;42419;48.760;2.322;2022-10-16T12:36:32;100603.72;;;22.16;53.47
56518;BME280;42419;48.760;2.322;2022-10-16T12:38:59;100640.88;;;22.40;53.49
56518;BME280;42419;48.760;2.322;2022-10-16T12:41:33;100645.78;;;22.32;53.56
56518;BME280;42419;48.760;2.322;2022-10-16T12:44:00;100652.59;;;22.39;53.78
56518;BME280;42419;48.760;2.322;2022-10-16T12:49:50;100625.88;;;22.36;53.70
56518;BME280;42419;48.760;2.322;2022-10-16T12:51:53;100626.59;;;22.40;53.66
56518;BME280;42419;48.760;2.322;2022-10-16T12:54:30;100630.66;;;22.49;53.61
56518;BME280;42419;48.760;2.322;2022-10-16T12:57:30;100636.97;;;22.48;53.51
56518;BME280;42419;48.760;2.322;2022-10-16T13:00:03;100627.72;;;22.53;53.62
56518;BME280;42419;48.760;2.322;2022-10-16T13:12:56;100629.97;;;22.62;51.92
56518;BME280;42419;48.760;2.322;2022-10-16T13:21:46;100628.63;;;22.71;51.62
56518;BME280;42419;48.760;2.322;2022-10-16T13:24:30;100614.66;;;22.64;51.60
56518;BME280;42419;48.760;2.322;2022-10-16T13:27:09;100615.44;;;22.66;51.83
56518;BME280;42419;48.760;2.322;2022-10-16T13:29:37;100607.53;;;22.63;51.92
56518;BME280;42419;48.760;2.322;2022-10-16T13:32:11;100614.94;;;22.58;51.28
56518;BME280;42419;48.760;2.322;2022-10-16T13:34:45;100608.94;;;22.53;51.71
56518;BME280;42419;48.760;2.322;2022-10-16T13:37:22;100612.63;;;22.51;51.80
56518;BME280;42419;48.760;2.322;2022-10-16T13:39:48;100602.38;;;22.41;51.72
56518;BME280;42419;48.760;2.322;2022-10-16T13:42:23;100610.25;;;22.45;52.04
56518;BME280;42419;48.760;2.322;2022-10-16T13:44:52;100608.44;;;22.45;52.36
56518;BME280;42419;48.760;2.322;2022-10-16T13:47:23;100595.03;;;22.45;52.20
56518;BME280;42419;48.760;2.322;2022-10-16T13:50:11;100603.72;;;22.50;52.63
56518;BME280;42419;48.760;2.322;2022-10-16T13:52:38;100606.56;;;22.47;52.91
56518;BME280;42419;48.760;2.322;2022-10-16T13:55:09;100606.63;;;22.46;52.78
56518;BME280;42419;48.760;2.322;2022-10-16T13:57:35;100592.06;;;22.34;52.95
56518;BME280;42419;48.760;2.322;2022-10-16T14:00:00;100595.63;;;22.34;52.92
56518;BME280;42419;48.760;2.322;2022-10-16T14:02:38;100607.97;;;22.37;52.81
56518;BME280;42419;48.760;2.322;2022-10-16T14:05:08;100607.22;;;22.35;53.30
56518;BME280;42419;48.760;2.322;2022-10-16T14:07:35;100600.09;;;22.34;53.00
56518;BME280;42419;48.760;2.322;2022-10-16T14:10:07;100608.16;;;22.34;53.00
56518;BME280;42419;48.760;2.322;2022-10-16T14:12:43;100612.66;;;22.33;52.86
56518;BME280;42419;48.760;2.322;2022-10-16T14:15:16;100615.41;;;22.32;52.95
56518;BME280;42419;48.760;2.322;2022-10-16T14:17:45;100615.41;;;22.32;52.94
56518;BME280;42419;48.760;2.322;2022-10-16T14:20:14;100611.84;;;22.31;53.00
56518;BME280;42419;48.760;2.322;2022-10-16T14:22:41;100613.69;;;22.31;52.97
56518;BME280;42419;48.760;2.322;2022-10-16T14:28:20;100607.50;;;22.29;53.07
56518;BME280;42419;48.760;2.322;2022-10-16T14:30:53;100609.38;;;22.27;53.32
56518;BME280;42419;48.760;2.322;2022-10-16T14:35:46;100609.38;;;22.27;52.89
56518;BME280;42419;48.760;2.322;2022-10-16T14:38:19;100607.56;;;22.27;53.43
56518;BME280;42419;48.760;2.322;2022-10-16T14:40:48;100598.81;;;22.24;53.38
56518;BME280;42419;48.760;2.322;2022-10-16T14:43:22;100613.97;;;22.25;53.93
56518;BME280;42419;48.760;2.322;2022-10-16T14:45:54;100609.50;;;22.25;54.14